sensor_id;sensor_type;location;lat;lon;timestamp;pressure;altitude;pressure_sealevel;temperature;humidity
52957;BME280;38819;42.692;23.342;2023-01-28T00:01:07;94671.19;;;3.09;68.62
52957;BME280;38819;42.692;23.342;2023-01-28T00:03:33;94663.22;;;3.14;67.97
52957;BME280;38819;42.692;23.342;2023-01-28T00:06:07;94666.09;;;3.02;68.14
52957;BME280;38819;42.692;23.342;2023-01-28T00:08:33;94668.50;;;3.04;68.32
52957;BME280;38819;42.692;23.342;2023-01-28T00:11:04;94667.97;;;3.02;68.03
52957;BME280;38819;42.692;23.342;2023-01-28T00:13:30;94680.78;;;3.05;68.42
52957;BME280;38819;42.692;23.342;2023-01-28T00:15:58;94676.25;;;3.05;67.81
52957;BME280;38819;42.692;23.342;2023-01-28T00:18:24;94678.91;;;3.00;68.17
52957;BME280;38819;42.692;23.342;2023-01-28T00:21:05;94688.44;;;2.86;68.38
52957;BME280;38819;42.692;23.342;2023-01-28T00:23:35;94692.66;;;2.82;68.60
52957;BME280;38819;42.692;23.342;2023-01-28T00:26:04;94696.69;;;2.84;68.25
52957;BME280;38819;42.692;23.342;2023-01-28T00:28:29;94698.78;;;2.82;68.17
52957;BME280;38819;42.692;23.342;2023-01-28T00:30:56;94698.78;;;2.82;68.06
52957;BME280;38819;42.692;23.342;2023-01-28T00:33:22;94698.97;;;2.70;68.17
52957;BME280;38819;42.692;23.342;2023-01-28T00:35:56;94702.75;;;2.74;68.26
52957;BME280;38819;42.692;23.342;2023-01-28T00:38:22;94700.66;;;2.82;68.18
52957;BME280;38819;42.692;23.342;2023-01-28T00:40:47;94694.06;;;2.94;67.92
52957;BME280;38819;42.692;23.342;2023-01-28T00:43:12;94695.88;;;2.89;67.93
52957;BME280;38819;42.692;23.342;2023-01-28T00:45:38;94698.56;;;2.89;67.65
52957;BME280;38819;42.692;23.342;2023-01-28T00:48:03;94705.72;;;2.83;67.94
52957;BME280;38819;42.692;23.342;2023-01-28T00:50:29;94709.47;;;2.87;67.74
52957;BME280;38819;42.692;23.342;2023-01-28T00:52:54;94709.19;;;2.84;67.35
52957;BME280;38819;42.692;23.342;2023-01-28T00:55:20;94708.69;;;2.87;67.51
52957;BME280;38819;42.692;23.342;2023-01-28T00:57:45;94708.16;;;2.85;67.87
52957;BME280;38819;42.692;23.342;2023-01-28T01:00:11;94714.88;;;2.92;67.87
52957;BME280;38819;42.692;23.342;2023-01-28T01:02:37;94713.53;;;2.95;68.38
52957;BME280;38819;42.692;23.342;2023-01-28T01:05:02;94709.03;;;3.01;67.22
52957;BME280;38819;42.692;23.342;2023-01-28T01:07:29;94706.66;;;2.99;67.74
52957;BME280;38819;42.692;23.342;2023-01-28T01:10:08;94698.69;;;3.04;67.63
52957;BME280;38819;42.692;23.342;2023-01-28T01:12:34;94712.00;;;2.99;67.27
52957;BME280;38819;42.692;23.342;2023-01-28T01:14:59;94716.25;;;3.00;67.49
52957;BME280;38819;42.692;23.342;2023-01-28T01:17:24;94714.66;;;2.99;67.60
52957;BME280;38819;42.692;23.342;2023-01-28T01:19:50;94726.63;;;2.96;67.67
52957;BME280;38819;42.692;23.342;2023-01-28T01:22:15;94712.47;;;2.91;68.05
52957;BME280;38819;42.692;23.342;2023-01-28T01:24:41;94710.78;;;2.80;67.99
52957;BME280;38819;42.692;23.342;2023-01-28T01:27:06;94710.56;;;2.86;68.06
52957;BME280;38819;42.692;23.342;2023-01-28T01:29:32;94714.78;;;2.82;67.97
52957;BME280;38819;42.692;23.342;2023-01-28T01:31:58;94712.38;;;2.81;68.10
52957;BME280;38819;42.692;23.342;2023-01-28T01:34:24;94718.81;;;2.85;68.32
52957;BME280;38819;42.692;23.342;2023-01-28T01:36:50;94715.00;;;2.75;68.32
52957;BME280;38819;42.692;23.342;2023-01-28T01:39:15;94721.44;;;2.80;68.50
52957;BME280;38819;42.692;23.342;2023-01-28T01:41:41;94728.72;;;2.89;68.26
52957;BME280;38819;42.692;23.342;2023-01-28T01:47:10;94723.16;;;2.96;68.33
52957;BME280;38819;42.692;23.342;2023-01-28T01:49:37;94724.69;;;2.87;68.47
52957;BME280;38819;42.692;23.342;2023-01-28T01:52:12;94717.91;;;2.74;68.29
52957;BME280;38819;42.692;23.342;2023-01-28T01:54:41;94721.19;;;2.81;68.52
52957;BME280;38819;42.692;23.342;2023-01-28T01:57:10;94728.97;;;2.88;68.64
52957;BME280;38819;42.692;23.342;2023-01-28T01:59:39;94723.59;;;2.83;68.67
52957;BME280;38819;42.692;23.342;2023-01-28T02:02:07;94716.41;;;2.83;68.80
52957;BME280;38819;42.692;23.342;2023-01-28T02:04:38;94730.28;;;2.85;68.73
52957;BME280;38819;42.692;23.342;2023-01-28T02:07:05;94731.22;;;2.69;68.31
52957;BME280;38819;42.692;23.342;2023-01-28T02:09:34;94741.63;;;2.70;68.50
52957;BME280;38819;42.692;23.342;2023-01-28T02:12:22;94745.41;;;2.74;68.54
52957;BME280;38819;42.692;23.342;2023-01-28T02:14:53;94734.78;;;2.80;68.40
52957;BME280;38819;42.692;23.342;2023-01-28T02:17:19;94734.00;;;2.79;68.05
52957;BME280;38819;42.692;23.342;2023-01-28T02:19:58;94737.41;;;2.74;68.20
52957;BME280;38819;42.692;23.342;2023-01-28T02:30:39;94746.28;;;2.85;67.84
52957;BME280;38819;42.692;23.342;2023-01-28T02:33:18;94742.56;;;2.86;67.29
52957;BME280;38819;42.692;23.342;2023-01-28T02:35:51;94738.59;;;2.94;67.33
52957;BME280;38819;42.692;23.342;2023-01-28T02:38:25;94734.84;;;2.90;67.23
52957;BME280;38819;42.692;23.342;2023-01-28T02:40:56;94740.59;;;2.71;67.60
52957;BME280;38819;42.692;23.342;2023-01-28T02:43:42;94746.75;;;2.77;67.62
52957;BME280;38819;42.692;23.342;2023-01-28T02:49:03;94747.47;;;2.67;68.12
52957;BME280;38819;42.692;23.342;2023-01-28T02:51:46;94752.09;;;2.77;67.93
52957;BME280;38819;42.692;23.342;2023-01-28T03:00:00;94743.28;;;2.76;67.86
52957;BME280;38819;42.692;23.342;2023-01-28T03:02:35;94750.53;;;2.81;68.17
52957;BME280;38819;42.692;23.342;2023-01-28T03:05:15;94740.88;;;2.75;67.61
52957;BME280;38819;42.692;23.342;2023-01-28T03:07:43;94741.78;;;2.86;67.24
52957;BME280;38819;42.692;23.342;2023-01-28T03:10:12;94743.28;;;2.76;67.52
52957;BME280;38819;42.692;23.342;2023-01-28T03:12:41;94747.31;;;2.79;66.97
52957;BME280;38819;42.692;23.342;2023-01-28T03:15:31;94758.03;;;2.84;66.80
52957;BME280;38819;42.692;23.342;2023-01-28T03:18:23;94748.84;;;2.70;67.05
52957;BME280;38819;42.692;23.342;2023-01-28T03:21:19;94756.34;;;2.73;67.55
52957;BME280;38819;42.692;23.342;2023-01-28T03:27:33;94767.47;;;2.65;67.11
52957;BME280;38819;42.692;23.342;2023-01-28T03:30:25;94757.53;;;2.60;67.04
52957;BME280;38819;42.692;23.342;2023-01-28T03:33:10;94762.16;;;2.70;67.42
52957;BME280;38819;42.692;23.342;2023-01-28T03:35:55;94758.28;;;2.55;67.33
52957;BME280;38819;42.692;23.342;2023-01-28T03:38:40;94757.75;;;2.53;67.35
52957;BME280;38819;42.692;23.342;2023-01-28T03:41:09;94747.59;;;2.50;67.33
52957;BME280;38819;42.692;23.342;2023-01-28T03:43:35;94767.06;;;2.51;67.56
52957;BME280;38819;42.692;23.342;2023-01-28T03:46:01;94760.31;;;2.43;68.02
52957;BME280;38819;42.692;23.342;2023-01-28T03:48:27;94768.13;;;2.50;67.82
52957;BME280;38819;42.692;23.342;2023-01-28T03:50:56;94769.91;;;2.39;68.72
52957;BME280;38819;42.692;23.342;2023-01-28T03:53:24;94769.38;;;2.42;68.48
52957;BME280;38819;42.692;23.342;2023-01-28T03:55:52;94771.78;;;2.44;68.52
52957;BME280;38819;42.692;23.342;2023-01-28T03:58:19;94766.75;;;2.20;68.88
52957;BME280;38819;42.692;23.342;2023-01-28T04:00:46;94770.53;;;2.24;68.83
52957;BME280;38819;42.692;23.342;2023-01-28T04:03:13;94774.41;;;2.38;68.52
52957;BME280;38819;42.692;23.342;2023-01-28T04:05:56;94785.34;;;2.42;68.19
52957;BME280;38819;42.692;23.342;2023-01-28T04:08:22;94776.19;;;2.28;68.51
52957;BME280;38819;42.692;23.342;2023-01-28T04:10:48;94784.03;;;2.39;68.22
52957;BME280;38819;42.692;23.342;2023-01-28T04:13:13;94782.25;;;2.50;68.24
52957;BME280;38819;42.692;23.342;2023-01-28T04:15:39;94787.38;;;2.57;67.87
52957;BME280;38819;42.692;23.342;2023-01-28T04:18:04;94785.28;;;2.59;67.59
52957;BME280;38819;42.692;23.342;2023-01-28T04:20:30;94788.53;;;2.66;67.92
52957;BME280;38819;42.692;23.342;2023-01-28T04:22:56;94784.69;;;2.57;67.74
52957;BME280;38819;42.692;23.342;2023-01-28T04:25:21;94788.00;;;2.64;67.44
52957;BME280;38819;42.692;23.342;2023-01-28T04:27:47;94786.06;;;2.59;67.22
52957;BME280;38819;42.692;23.342;2023-01-28T04:30:12;94787.38;;;2.57;67.29
52957;BME280;38819;42.692;23.342;2023-01-28T04:32:38;94798.84;;;2.57;67.37
52957;BME280;38819;42.692;23.342;2023-01-28T04:35:03;94806.28;;;2.55;67.33
52957;BME280;38819;42.692;23.342;2023-01-28T04:37:29;94802.28;;;2.53;67.40
52957;BME280;38819;42.692;23.342;2023-01-28T04:39:54;94805.25;;;2.56;67.55
52957;BME280;38819;42.692;23.342;2023-01-28T04:42:19;94806.28;;;2.55;67.30
52957;BME280;38819;42.692;23.342;2023-01-28T04:44:45;94816.34;;;2.48;67.72
52957;BME280;38819;42.692;23.342;2023-01-28T04:47:10;94814.03;;;2.57;67.59
52957;BME280;38819;42.692;23.342;2023-01-28T04:49:36;94820.69;;;2.54;67.68
52957;BME280;38819;42.692;23.342;2023-01-28T04:52:01;94815.34;;;2.54;67.80
52957;BME280;38819;42.692;23.342;2023-01-28T04:54:26;94818.31;;;2.58;67.86
52957;BME280;38819;42.692;23.342;2023-01-28T04:56:52;94826.75;;;2.50;68.11
52957;BME280;38819;42.692;23.342;2023-01-28T04:59:17;94813.34;;;2.39;68.78
52957;BME280;38819;42.692;23.342;2023-01-28T05:01:44;94825.59;;;2.40;68.85
52957;BME280;38819;42.692;23.342;2023-01-28T05:04:09;94828.00;;;2.42;68.68
52957;BME280;38819;42.692;23.342;2023-01-28T05:06:34;94822.94;;;2.40;68.67
52957;BME280;38819;42.692;23.342;2023-01-28T05:09:00;94831.94;;;2.34;68.68
52957;BME280;38819;42.692;23.342;2023-01-28T05:11:26;94828.41;;;2.29;69.04
52957;BME280;38819;42.692;23.342;2023-01-28T05:13:53;94831.44;;;2.37;68.20
52957;BME280;38819;42.692;23.342;2023-01-28T05:16:18;94830.63;;;2.37;69.13
52957;BME280;38819;42.692;23.342;2023-01-28T05:18:44;94846.31;;;2.33;68.69
52957;BME280;38819;42.692;23.342;2023-01-28T05:21:12;94835.16;;;2.36;68.83
52957;BME280;38819;42.692;23.342;2023-01-28T05:23:37;94850.47;;;2.46;68.67
52957;BME280;38819;42.692;23.342;2023-01-28T05:26:03;94842.47;;;2.46;68.51
52957;BME280;38819;42.692;23.342;2023-01-28T05:28:29;94847.34;;;2.54;67.95
52957;BME280;38819;42.692;23.342;2023-01-28T05:30:54;94843.31;;;2.52;67.73
52957;BME280;38819;42.692;23.342;2023-01-28T05:33:20;94840.44;;;2.58;67.52
52957;BME280;38819;42.692;23.342;2023-01-28T05:35:45;94845.72;;;2.53;67.08
52957;BME280;38819;42.692;23.342;2023-01-28T05:38:11;94847.34;;;2.54;67.57
52957;BME280;38819;42.692;23.342;2023-01-28T05:40:36;94845.19;;;2.51;67.47
52957;BME280;38819;42.692;23.342;2023-01-28T05:43:01;94842.25;;;2.53;67.65
52957;BME280;38819;42.692;23.342;2023-01-28T05:45:27;94850.06;;;2.59;67.45
52957;BME280;38819;42.692;23.342;2023-01-28T05:47:52;94851.59;;;2.55;68.01
52957;BME280;38819;42.692;23.342;2023-01-28T05:50:18;94848.44;;;2.58;67.27
52957;BME280;38819;42.692;23.342;2023-01-28T05:52:44;94845.72;;;2.53;67.54
52957;BME280;38819;42.692;23.342;2023-01-28T05:55:09;94855.59;;;2.53;67.50
52957;BME280;38819;42.692;23.342;2023-01-28T05:57:35;94862.03;;;2.57;67.51
52957;BME280;38819;42.692;23.342;2023-01-28T06:00:01;94863.25;;;2.44;67.73
52957;BME280;38819;42.692;23.342;2023-01-28T06:02:26;94868.38;;;2.51;67.38
52957;BME280;38819;42.692;23.342;2023-01-28T06:04:52;94870.91;;;2.40;67.46
52957;BME280;38819;42.692;23.342;2023-01-28T06:07:17;94881.00;;;2.38;67.45
52957;BME280;38819;42.692;23.342;2023-01-28T06:09:45;94884.56;;;2.44;67.51
52957;BME280;38819;42.692;23.342;2023-01-28T06:12:11;94881.47;;;2.52;67.05
52957;BME280;38819;42.692;23.342;2023-01-28T06:14:36;94889.38;;;2.47;67.40
52957;BME280;38819;42.692;23.342;2023-01-28T06:17:02;94899.72;;;2.44;67.73
52957;BME280;38819;42.692;23.342;2023-01-28T06:19:27;94896.31;;;2.48;67.28
52957;BME280;38819;42.692;23.342;2023-01-28T06:21:53;94900.97;;;2.58;67.02
52957;BME280;38819;42.692;23.342;2023-01-28T06:24:18;94895.44;;;2.65;66.69
52957;BME280;38819;42.692;23.342;2023-01-28T06:26:44;94902.25;;;2.55;66.61
52957;BME280;38819;42.692;23.342;2023-01-28T06:29:09;94913.06;;;2.66;66.62
52957;BME280;38819;42.692;23.342;2023-01-28T06:31:34;94921.81;;;2.61;66.63
52957;BME280;38819;42.692;23.342;2023-01-28T06:34:00;94916.66;;;2.54;66.67
52957;BME280;38819;42.692;23.342;2023-01-28T06:36:25;94915.59;;;2.55;67.16
52957;BME280;38819;42.692;23.342;2023-01-28T06:38:51;94916.97;;;2.58;66.95
52957;BME280;38819;42.692;23.342;2023-01-28T06:41:16;94917.66;;;2.48;66.95
52957;BME280;38819;42.692;23.342;2023-01-28T06:43:42;94918.44;;;2.49;67.16
52957;BME280;38819;42.692;23.342;2023-01-28T06:46:07;94928.91;;;2.55;66.90
52957;BME280;38819;42.692;23.342;2023-01-28T06:48:33;94943.00;;;2.51;66.83
52957;BME280;38819;42.692;23.342;2023-01-28T06:50:58;94930.44;;;2.46;66.90
52957;BME280;38819;42.692;23.342;2023-01-28T06:53:24;94937.03;;;2.44;67.06
52957;BME280;38819;42.692;23.342;2023-01-28T06:55:49;94945.34;;;2.47;66.86
52957;BME280;38819;42.692;23.342;2023-01-28T06:58:15;94940.84;;;2.48;67.28
52957;BME280;38819;42.692;23.342;2023-01-28T07:00:41;94946.00;;;2.54;67.12
52957;BME280;38819;42.692;23.342;2023-01-28T07:03:07;94959.75;;;2.46;67.08
52957;BME280;38819;42.692;23.342;2023-01-28T07:05:32;94943.75;;;2.46;66.95
52957;BME280;38819;42.692;23.342;2023-01-28T07:07:57;94952.34;;;2.53;66.95
52957;BME280;38819;42.692;23.342;2023-01-28T07:10:23;94953.16;;;2.54;67.06
52957;BME280;38819;42.692;23.342;2023-01-28T07:12:48;94954.91;;;2.65;66.86
52957;BME280;38819;42.692;23.342;2023-01-28T07:15:14;94966.88;;;2.63;66.86
52957;BME280;38819;42.692;23.342;2023-01-28T07:17:40;94968.66;;;2.57;66.88
52957;BME280;38819;42.692;23.342;2023-01-28T07:20:07;94971.38;;;2.62;67.03
52957;BME280;38819;42.692;23.342;2023-01-28T07:22:33;94976.41;;;2.58;67.41
52957;BME280;38819;42.692;23.342;2023-01-28T07:24:58;94980.75;;;2.43;66.99
52957;BME280;38819;42.692;23.342;2023-01-28T07:27:25;94977.50;;;2.40;67.46
52957;BME280;38819;42.692;23.342;2023-01-28T07:29:51;94983.69;;;2.41;67.29
52957;BME280;38819;42.692;23.342;2023-01-28T07:32:16;94986.88;;;2.43;67.33
52957;BME280;38819;42.692;23.342;2023-01-28T07:34:42;94983.63;;;2.58;67.11
52957;BME280;38819;42.692;23.342;2023-01-28T07:37:08;95004.03;;;2.69;66.69
52957;BME280;38819;42.692;23.342;2023-01-28T07:39:34;94990.13;;;2.67;66.44
52957;BME280;38819;42.692;23.342;2023-01-28T07:42:00;94993.25;;;2.59;67.36
52957;BME280;38819;42.692;23.342;2023-01-28T07:44:25;94993.50;;;2.57;66.91
52957;BME280;38819;42.692;23.342;2023-01-28T07:46:51;95003.19;;;2.69;66.93
52957;BME280;38819;42.692;23.342;2023-01-28T07:49:16;94999.19;;;2.66;66.51
52957;BME280;38819;42.692;23.342;2023-01-28T07:51:42;95004.78;;;2.65;66.96
52957;BME280;38819;42.692;23.342;2023-01-28T07:54:09;95005.06;;;2.68;67.25
52957;BME280;38819;42.692;23.342;2023-01-28T07:56:35;95007.00;;;2.73;67.29
52957;BME280;38819;42.692;23.342;2023-01-28T07:59:00;95006.28;;;2.77;67.04
52957;BME280;38819;42.692;23.342;2023-01-28T08:01:26;95007.44;;;2.65;66.86
52957;BME280;38819;42.692;23.342;2023-01-28T08:03:51;95013.44;;;2.77;66.19
52957;BME280;38819;42.692;23.342;2023-01-28T08:06:16;95013.06;;;2.68;66.37
52957;BME280;38819;42.692;23.342;2023-01-28T08:08:42;95021.81;;;2.64;66.57
52957;BME280;38819;42.692;23.342;2023-01-28T08:11:08;95023.97;;;2.45;66.93
52957;BME280;38819;42.692;23.342;2023-01-28T08:13:35;95022.75;;;2.52;67.24
52957;BME280;38819;42.692;23.342;2023-01-28T08:16:00;95024.03;;;2.50;66.78
52957;BME280;38819;42.692;23.342;2023-01-28T08:18:26;95024.09;;;2.55;66.70
52957;BME280;38819;42.692;23.342;2023-01-28T08:20:56;95024.09;;;2.55;66.96
52957;BME280;38819;42.692;23.342;2023-01-28T08:23:22;95035.56;;;2.55;66.49
52957;BME280;38819;42.692;23.342;2023-01-28T08:25:48;95021.22;;;2.39;67.24
52957;BME280;38819;42.692;23.342;2023-01-28T08:28:14;95023.31;;;2.54;67.12
52957;BME280;38819;42.692;23.342;2023-01-28T08:30:40;95033.06;;;2.66;67.04
52957;BME280;38819;42.692;23.342;2023-01-28T08:33:08;95035.06;;;2.58;66.88
52957;BME280;38819;42.692;23.342;2023-01-28T08:35:34;95032.78;;;2.67;66.41
52957;BME280;38819;42.692;23.342;2023-01-28T08:38:01;95024.53;;;2.69;66.03
52957;BME280;38819;42.692;23.342;2023-01-28T08:40:27;95021.94;;;2.74;66.56
52957;BME280;38819;42.692;23.342;2023-01-28T08:42:53;95035.66;;;2.83;66.57
52957;BME280;38819;42.692;23.342;2023-01-28T08:45:20;95032.75;;;2.84;66.12
52957;BME280;38819;42.692;23.342;2023-01-28T08:47:48;95030.34;;;2.83;65.86
52957;BME280;38819;42.692;23.342;2023-01-28T08:50:14;95016.03;;;2.94;65.42
52957;BME280;38819;42.692;23.342;2023-01-28T08:52:40;95031.25;;;2.93;65.15
52957;BME280;38819;42.692;23.342;2023-01-28T08:55:08;95033.97;;;2.99;65.11
52957;BME280;38819;42.692;23.342;2023-01-28T08:57:34;95039.44;;;2.87;65.32
52957;BME280;38819;42.692;23.342;2023-01-28T08:59:59;95041.06;;;2.66;65.65
52957;BME280;38819;42.692;23.342;2023-01-28T09:02:24;95033.84;;;2.66;66.21
52957;BME280;38819;42.692;23.342;2023-01-28T09:04:50;95041.97;;;2.76;65.79
52957;BME280;38819;42.692;23.342;2023-01-28T09:07:15;95029.94;;;2.74;65.47
52957;BME280;38819;42.692;23.342;2023-01-28T09:09:40;95043.91;;;2.81;66.03
52957;BME280;38819;42.692;23.342;2023-01-28T09:12:06;95046.53;;;2.76;66.10
52957;BME280;38819;42.692;23.342;2023-01-28T09:14:32;95036.03;;;2.69;66.43
52957;BME280;38819;42.692;23.342;2023-01-28T09:16:58;95045.56;;;2.87;65.97
52957;BME280;38819;42.692;23.342;2023-01-28T09:19:23;95040.13;;;2.99;66.27
52957;BME280;38819;42.692;23.342;2023-01-28T09:21:48;95040.06;;;2.94;65.57
52957;BME280;38819;42.692;23.342;2023-01-28T09:24:14;95044.84;;;2.92;65.82
52957;BME280;38819;42.692;23.342;2023-01-28T09:26:39;95042.47;;;2.95;66.38
52957;BME280;38819;42.692;23.342;2023-01-28T09:29:05;95042.41;;;2.90;65.90
52957;BME280;38819;42.692;23.342;2023-01-28T09:31:30;95042.22;;;2.75;66.21
52957;BME280;38819;42.692;23.342;2023-01-28T09:33:56;95039.75;;;2.90;65.93
52957;BME280;38819;42.692;23.342;2023-01-28T09:36:22;95026.59;;;2.84;66.20
52957;BME280;38819;42.692;23.342;2023-01-28T09:38:47;95036.28;;;2.90;66.52
52957;BME280;38819;42.692;23.342;2023-01-28T09:44:24;95037.84;;;2.86;66.54
52957;BME280;38819;42.692;23.342;2023-01-28T09:46:59;95037.19;;;2.78;66.91
52957;BME280;38819;42.692;23.342;2023-01-28T09:49:29;95038.16;;;2.89;66.76
52957;BME280;38819;42.692;23.342;2023-01-28T09:51:58;95033.53;;;2.63;67.01
52957;BME280;38819;42.692;23.342;2023-01-28T09:57:11;95039.06;;;2.78;67.17
52957;BME280;38819;42.692;23.342;2023-01-28T09:59:38;95046.59;;;2.81;67.68
52957;BME280;38819;42.692;23.342;2023-01-28T10:02:26;95042.16;;;2.70;67.65
52957;BME280;38819;42.692;23.342;2023-01-28T10:10:32;95045.03;;;2.85;67.35
52957;BME280;38819;42.692;23.342;2023-01-28T10:15:50;95029.97;;;2.96;67.08
52957;BME280;38819;42.692;23.342;2023-01-28T10:18:34;95031.44;;;2.87;67.26
52957;BME280;38819;42.692;23.342;2023-01-28T10:21:07;95032.63;;;2.96;67.21
52957;BME280;38819;42.692;23.342;2023-01-28T10:26:38;95030.56;;;2.81;67.60
52957;BME280;38819;42.692;23.342;2023-01-28T10:29:19;95030.88;;;2.85;67.87
52957;BME280;38819;42.692;23.342;2023-01-28T10:32:04;95038.50;;;2.98;67.55
52957;BME280;38819;42.692;23.342;2023-01-28T10:34:30;95034.03;;;2.82;67.35
52957;BME280;38819;42.692;23.342;2023-01-28T10:36:56;95031.63;;;2.80;68.12
52957;BME280;38819;42.692;23.342;2023-01-28T10:39:23;95030.69;;;2.91;68.20
52957;BME280;38819;42.692;23.342;2023-01-28T10:41:49;95052.34;;;2.73;68.11
52957;BME280;38819;42.692;23.342;2023-01-28T10:44:29;95029.69;;;2.75;68.15
52957;BME280;38819;42.692;23.342;2023-01-28T10:46:58;95037.56;;;2.87;67.76
52957;BME280;38819;42.692;23.342;2023-01-28T10:49:27;95030.75;;;2.96;67.53
52957;BME280;38819;42.692;23.342;2023-01-28T10:51:53;95040.44;;;3.03;67.10
52957;BME280;38819;42.692;23.342;2023-01-28T10:54:24;95021.00;;;3.07;67.34
52957;BME280;38819;42.692;23.342;2023-01-28T10:56:53;95035.22;;;3.13;66.76
52957;BME280;38819;42.692;23.342;2023-01-28T10:59:28;95030.03;;;3.01;67.41
52957;BME280;38819;42.692;23.342;2023-01-28T11:04:22;95026.91;;;3.09;66.64
52957;BME280;38819;42.692;23.342;2023-01-28T11:09:33;95016.84;;;3.17;66.66
52957;BME280;38819;42.692;23.342;2023-01-28T11:12:10;95034.22;;;3.19;65.95
52957;BME280;38819;42.692;23.342;2023-01-28T11:14:36;95043.28;;;3.18;65.90
52957;BME280;38819;42.692;23.342;2023-01-28T11:17:02;95018.97;;;3.14;66.58
52957;BME280;38819;42.692;23.342;2023-01-28T11:19:33;95018.72;;;3.16;66.48
52957;BME280;38819;42.692;23.342;2023-01-28T11:22:00;95032.91;;;3.22;65.96
52957;BME280;38819;42.692;23.342;2023-01-28T11:24:31;95025.81;;;3.32;65.14
52957;BME280;38819;42.692;23.342;2023-01-28T11:27:09;95016.66;;;3.23;65.32
52957;BME280;38819;42.692;23.342;2023-01-28T11:29:38;95015.16;;;3.32;65.28
52957;BME280;38819;42.692;23.342;2023-01-28T11:32:04;95028.13;;;3.24;65.30
52957;BME280;38819;42.692;23.342;2023-01-28T11:34:33;95019.06;;;3.25;65.48
52957;BME280;38819;42.692;23.342;2023-01-28T11:37:09;95013.78;;;3.30;65.42
52957;BME280;38819;42.692;23.342;2023-01-28T11:39:37;95011.41;;;3.33;65.29
52957;BME280;38819;42.692;23.342;2023-01-28T11:42:34;95018.63;;;3.33;65.40
52957;BME280;38819;42.692;23.342;2023-01-28T11:45:00;95017.09;;;3.15;65.41
52957;BME280;38819;42.692;23.342;2023-01-28T11:50:29;95008.88;;;3.22;65.41
52957;BME280;38819;42.692;23.342;2023-01-28T12:01:54;95012.47;;;3.32;64.84
52957;BME280;38819;42.692;23.342;2023-01-28T12:07:25;95015.19;;;3.38;64.76
52957;BME280;38819;42.692;23.342;2023-01-28T12:10:17;95025.06;;;3.37;64.84
52957;BME280;38819;42.692;23.342;2023-01-28T12:12:53;95019.22;;;3.40;64.49
52957;BME280;38819;42.692;23.342;2023-01-28T12:18:30;95010.16;;;3.41;64.26
52957;BME280;38819;42.692;23.342;2023-01-28T12:21:03;95016.59;;;3.45;64.25
52957;BME280;38819;42.692;23.342;2023-01-28T12:26:20;95006.84;;;3.56;64.06
52957;BME280;38819;42.692;23.342;2023-01-28T12:29:07;95013.56;;;3.64;63.90
52957;BME280;38819;42.692;23.342;2023-01-28T12:31:58;95016.31;;;3.74;63.64
52957;BME280;38819;42.692;23.342;2023-01-28T12:34:57;95015.97;;;3.65;63.79
52957;BME280;38819;42.692;23.342;2023-01-28T12:37:42;95018.44;;;3.72;63.33
52957;BME280;38819;42.692;23.342;2023-01-28T12:48:48;95027.06;;;3.52;63.92
52957;BME280;38819;42.692;23.342;2023-01-28T12:51:50;95036.22;;;3.56;63.70
52957;BME280;38819;42.692;23.342;2023-01-28T12:54:40;95032.72;;;3.56;63.76
52957;BME280;38819;42.692;23.342;2023-01-28T12:57:14;95026.28;;;3.51;64.22
52957;BME280;38819;42.692;23.342;2023-01-28T13:00:47;95042.69;;;3.65;63.82
52957;BME280;38819;42.692;23.342;2023-01-28T13:02:49;95037.63;;;3.69;63.54
52957;BME280;38819;42.692;23.342;2023-01-28T13:05:20;95034.69;;;3.65;64.00
52957;BME280;38819;42.692;23.342;2023-01-28T13:08:01;95044.94;;;3.79;63.72
52957;BME280;38819;42.692;23.342;2023-01-28T13:13:04;95043.84;;;3.75;63.33
52957;BME280;38819;42.692;23.342;2023-01-28T13:15:30;95053.56;;;3.59;63.97
52957;BME280;38819;42.692;23.342;2023-01-28T13:18:00;95056.53;;;3.35;64.43
52957;BME280;38819;42.692;23.342;2023-01-28T13:21:02;95045.66;;;3.42;64.13
52957;BME280;38819;42.692;23.342;2023-01-28T13:25:55;95056.50;;;3.57;63.58
52957;BME280;38819;42.692;23.342;2023-01-28T13:28:30;95063.00;;;3.66;63.27
52957;BME280;38819;42.692;23.342;2023-01-28T13:31:07;95070.91;;;3.56;63.03
52957;BME280;38819;42.692;23.342;2023-01-28T13:33:36;95069.63;;;3.37;63.96
52957;BME280;38819;42.692;23.342;2023-01-28T13:36:51;95052.91;;;3.19;64.69
52957;BME280;38819;42.692;23.342;2023-01-28T13:41:48;95073.06;;;3.32;64.39
52957;BME280;38819;42.692;23.342;2023-01-28T13:44:29;95072.50;;;3.30;64.41
52957;BME280;38819;42.692;23.342;2023-01-28T13:47:13;95065.94;;;3.38;64.44
52957;BME280;38819;42.692;23.342;2023-01-28T13:50:12;95069.34;;;3.33;63.42
52957;BME280;38819;42.692;23.342;2023-01-28T13:53:06;95091.94;;;3.25;63.75
52957;BME280;38819;42.692;23.342;2023-01-28T13:55:43;95093.03;;;3.07;64.63
52957;BME280;38819;42.692;23.342;2023-01-28T14:09:43;95093.72;;;3.42;64.00
52957;BME280;38819;42.692;23.342;2023-01-28T14:12:30;95101.44;;;3.38;63.99
52957;BME280;38819;42.692;23.342;2023-01-28T14:17:43;95101.94;;;3.13;64.96
52957;BME280;38819;42.692;23.342;2023-01-28T14:20:22;95100.88;;;3.14;64.91
52957;BME280;38819;42.692;23.342;2023-01-28T14:22:50;95110.38;;;3.27;64.76
52957;BME280;38819;42.692;23.342;2023-01-28T14:28:11;95115.09;;;3.42;64.43
52957;BME280;38819;42.692;23.342;2023-01-28T14:30:47;95118.25;;;3.39;63.86
52957;BME280;38819;42.692;23.342;2023-01-28T14:33:14;95126.38;;;3.27;63.87
52957;BME280;38819;42.692;23.342;2023-01-28T14:35:46;95133.66;;;3.09;64.44
52957;BME280;38819;42.692;23.342;2023-01-28T14:38:18;95139.00;;;3.09;64.98
52957;BME280;38819;42.692;23.342;2023-01-28T14:40:48;95126.50;;;3.15;64.63
52957;BME280;38819;42.692;23.342;2023-01-28T14:43:19;95136.06;;;3.11;64.58
52957;BME280;38819;42.692;23.342;2023-01-28T14:51:18;95141.25;;;3.01;65.27
52957;BME280;38819;42.692;23.342;2023-01-28T14:59:25;95155.53;;;2.89;64.71
52957;BME280;38819;42.692;23.342;2023-01-28T15:01:57;95150.69;;;2.86;65.09
52957;BME280;38819;42.692;23.342;2023-01-28T15:04:27;95168.22;;;2.65;65.90